Time;durP1;ratioP1;P1;durP2;ratioP2;P2;SDS_P1;SDS_P2;PMS_P1;PMS_P2;Temp;Humidity;BMP_temperature;BMP_pressure;BME280_temperature;BME280_humidity;BME280_pressure;Samples;Min_cycle;Max_cycle;Signal;HPM_P1;HPM_P2
2022/06/07 00:00:17;;;;;;;4.60;3.35;;;16.10;99.90;;;;;;6190056;23;20170;-82
2022/06/07 00:02:43;;;;;;;4.78;3.45;;;;;;;;;;6216739;23;20267;-82
2022/06/07 00:05:09;;;;;;;5.10;3.13;;;;;;;;;;6216668;23;20622;-82
2022/06/07 00:07:35;;;;;;;5.45;3.70;;;;;;;;;;6216189;23;20491;-81
2022/06/07 00:10:01;;;;;;;6.57;3.83;;;;;;;;;;6165616;23;20206;-82
2022/06/07 00:12:27;;;;;;;5.10;3.17;;;15.70;99.90;;;;;;6216478;23;20156;-82
2022/06/07 00:14:53;;;;;;;6.15;3.50;;;;;;;;;;6216420;23;20231;-82
2022/06/07 00:17:20;;;;;;;5.43;3.45;;;;;;;;;;6216491;23;20176;-82
2022/06/07 00:19:47;;;;;;;3.58;3.22;;;15.70;99.90;;;;;;6216634;23;20152;-82
2022/06/07 00:22:13;;;;;;;4.53;3.38;;;;;;;;;;6189723;23;20194;-87
2022/06/07 00:24:39;;;;;;;4.07;3.15;;;;;;;;;;6190097;23;20186;-83
2022/06/07 00:27:05;;;;;;;4.65;3.35;;;15.20;99.90;;;;;;6216472;23;20176;-82
2022/06/07 00:29:32;;;;;;;5.03;3.83;;;;;;;;;;6216376;23;20156;-82
2022/06/07 00:32:00;;;;;;;4.32;3.55;;;15.20;99.90;;;;;;6216550;23;20156;-82
2022/06/07 00:34:26;;;;;;;5.28;3.83;;;15.00;99.90;;;;;;6215850;23;20227;-82
2022/06/07 00:36:52;;;;;;;6.15;3.53;;;;;;;;;;6216226;23;20180;-82
2022/06/07 00:39:18;;;;;;;5.15;3.85;;;14.90;99.90;;;;;;6165037;23;20163;-82
2022/06/07 00:41:44;;;;;;;7.40;4.05;;;;;;;;;;6216257;23;20634;-82
2022/06/07 00:44:25;;;;;;;4.90;3.72;;;14.70;99.90;;;;;;6189985;23;20156;-82
2022/06/07 00:47:23;;;;;;;5.22;4.30;;;15.00;99.90;;;;;;6189637;23;20494;-82
2022/06/07 00:49:51;;;;;;;5.82;3.75;;;14.40;99.90;;;;;;6215004;23;20160;-82
2022/06/07 00:52:19;;;;;;;5.15;3.70;;;14.90;99.90;;;;;;6228455;23;20156;-86
2022/06/07 00:54:45;;;;;;;6.32;3.95;;;14.70;99.90;;;;;;6218526;23;20230;-82
2022/06/07 00:57:11;;;;;;;5.53;3.45;;;;;;;;;;6216331;23;20607;-81
2022/06/07 00:59:37;;;;;;;3.72;3.33;;;;;;;;;;6216616;23;20210;-82
2022/06/07 01:02:03;;;;;;;5.63;4.25;;;14.40;99.90;;;;;;6216414;23;20188;-82
2022/06/07 01:04:29;;;;;;;3.13;2.75;;;14.70;99.90;;;;;;6189777;23;20192;-82
2022/06/07 01:12:25;;;;;;;5.60;4.07;;;14.80;99.90;;;;;;6220742;23;20163;-85
2022/06/07 01:14:51;;;;;;;4.78;3.47;;;14.70;99.90;;;;;;6243508;23;20155;-83
2022/06/07 01:17:17;;;;;;;5.25;4.10;;;14.20;99.90;;;;;;6217656;23;20164;-86
2022/06/07 01:19:43;;;;;;;5.55;4.05;;;;;;;;;;6234607;23;20591;-82
2022/06/07 01:22:09;;;;;;;8.52;4.18;;;15.20;99.90;;;;;;6189660;23;20183;-81
2022/06/07 01:24:36;;;;;;;5.03;3.90;;;;;;;;;;6215523;23;20499;-81
2022/06/07 01:27:02;;;;;;;5.25;3.33;;;15.00;99.90;;;;;;6216186;23;20156;-81
2022/06/07 01:29:28;;;;;;;4.88;3.80;;;14.90;99.90;;;;;;6189173;23;20160;-81
2022/06/07 01:31:54;;;;;;;4.80;4.00;;;;;;;;;;6189376;23;20675;-81
2022/06/07 01:34:19;;;;;;;5.93;4.07;;;14.80;99.90;;;;;;6215653;23;20177;-81
2022/06/07 01:36:46;;;;;;;5.47;3.70;;;;;;;;;;6216119;23;20239;-80
2022/06/07 01:41:56;;;;;;;4.78;3.35;;;;;;;;;;6216112;23;20186;-81
2022/06/07 01:44:39;;;;;;;4.47;3.35;;;14.80;99.90;;;;;;6189510;23;20168;-82
2022/06/07 01:47:07;;;;;;;5.95;4.15;;;14.60;99.90;;;;;;6216031;23;20140;-82
2022/06/07 01:49:33;;;;;;;4.75;3.72;;;14.30;99.90;;;;;;6215683;23;20152;-83
2022/06/07 01:51:59;;;;;;;3.45;3.10;;;14.30;99.90;;;;;;6217141;23;20152;-83
2022/06/07 01:54:25;;;;;;;5.28;3.92;;;;;;;;;;6235048;23;20186;-83
2022/06/07 01:56:51;;;;;;;4.47;3.40;;;13.80;99.90;;;;;;6230310;23;20271;-80
2022/06/07 01:59:18;;;;;;;5.13;3.47;;;14.30;99.90;;;;;;6232572;23;20160;-80
2022/06/07 02:01:45;;;;;;;7.55;3.67;;;14.30;99.90;;;;;;6235502;23;20179;-83
2022/06/07 02:04:11;;;;;;;4.55;3.55;;;14.60;99.90;;;;;;6216032;23;20222;-82
2022/06/07 02:06:37;;;;;;;7.18;4.00;;;;;;;;;;6215608;23;20588;-82
2022/06/07 02:09:04;;;;;;;4.75;3.53;;;14.10;99.90;;;;;;6226184;23;20188;-82
2022/06/07 02:11:30;;;;;;;4.05;3.28;;;;;;;;;;6230433;23;20152;-82
2022/06/07 02:13:56;;;;;;;6.10;4.10;;;;;;;;;;6203942;23;20152;-81
2022/06/07 02:16:23;;;;;;;4.82;3.70;;;;;;;;;;6198822;23;20243;-83
2022/06/07 02:18:49;;;;;;;5.13;3.53;;;14.00;99.90;;;;;;6188895;23;20160;-82
2022/06/07 02:21:15;;;;;;;5.95;3.95;;;;;;;;;;6215612;23;20152;-82
2022/06/07 02:23:41;;;;;;;4.95;3.65;;;13.90;99.90;;;;;;6216122;23;20168;-83
2022/06/07 02:26:21;;;;;;;4.18;3.30;;;14.20;99.90;;;;;;6165305;23;20489;-82
2022/06/07 02:28:50;;;;;;;4.05;3.63;;;13.70;99.90;;;;;;6216327;23;20290;-82
2022/06/07 02:31:18;;;;;;;4.30;3.28;;;14.00;99.90;;;;;;6216238;23;20152;-82
2022/06/07 02:33:45;;;;;;;4.85;3.95;;;;;;;;;;6217425;23;20152;-83
2022/06/07 02:36:12;;;;;;;4.70;2.78;;;13.80;99.90;;;;;;6166257;23;20523;-83
2022/06/07 02:38:38;;;;;;;4.78;3.55;;;14.00;99.90;;;;;;6217292;23;20190;-83
2022/06/07 02:41:07;;;;;;;4.72;3.65;;;14.00;99.90;;;;;;6217051;23;20160;-82
2022/06/07 02:43:33;;;;;;;5.57;3.80;;;14.50;99.90;;;;;;6216987;23;20210;-82
2022/06/07 02:45:59;;;;;;;5.00;3.80;;;;;;;;;;6217880;23;20160;-82
2022/06/07 02:48:25;;;;;;;5.28;3.55;;;;;;;;;;6217610;23;20202;-82
2022/06/07 02:50:53;;;;;;;4.63;3.60;;;;;;;;;;6227509;23;20182;-82
2022/06/07 02:53:21;;;;;;;4.13;3.00;;;;;;;;;;6205788;23;20159;-82
2022/06/07 02:55:47;;;;;;;5.10;3.53;;;;;;;;;;6218108;23;20618;-83
2022/06/07 02:58:12;;;;;;;5.07;3.47;;;13.80;99.90;;;;;;6217508;23;20178;-82
2022/06/07 03:00:39;;;;;;;5.15;3.67;;;;;;;;;;6190834;23;20575;-82
2022/06/07 03:03:04;;;;;;;8.07;4.13;;;14.60;99.90;;;;;;6217448;23;20176;-83
2022/06/07 03:05:31;;;;;;;6.43;3.42;;;;;;;;;;6217788;23;20235;-83
2022/06/07 03:07:57;;;;;;;5.63;4.25;;;;;;;;;;6217200;23;20726;-83
2022/06/07 03:10:23;;;;;;;6.65;4.57;;;;;;;;;;6191155;23;20478;-83
2022/06/07 03:12:49;;;;;;;5.38;4.22;;;;;;;;;;6217310;23;20160;-82
2022/06/07 03:15:15;;;;;;;4.60;3.45;;;14.20;99.90;;;;;;6217368;23;20152;-83
2022/06/07 03:17:41;;;;;;;6.07;4.22;;;;;;;;;;6216602;23;20160;-83
2022/06/07 03:20:08;;;;;;;4.05;3.03;;;14.00;99.90;;;;;;6216575;23;20156;-83
2022/06/07 03:22:35;;;;;;;4.40;3.75;;;;;;;;;;6215999;23;20183;-87
2022/06/07 03:25:01;;;;;;;6.22;3.95;;;;;;;;;;6216226;23;20662;-83
2022/06/07 03:27:27;;;;;;;5.30;4.20;;;;;;;;;;6216564;23;20152;-83
2022/06/07 03:29:53;;;;;;;5.80;4.13;;;14.40;99.90;;;;;;6216491;23;20155;-83
2022/06/07 03:32:19;;;;;;;6.35;4.47;;;;;;;;;;6216662;23;20167;-83
2022/06/07 03:34:45;;;;;;;4.60;3.83;;;;;;;;;;6216307;23;20156;-83
2022/06/07 03:37:11;;;;;;;5.03;4.30;;;;;;;;;;6216470;23;20290;-83
2022/06/07 03:39:37;;;;;;;5.32;3.60;;;;;;;;;;6216645;23;20159;-85
2022/06/07 03:42:03;;;;;;;4.63;3.50;;;;;;;;;;6190461;23;20250;-82
2022/06/07 03:44:29;;;;;;;8.52;4.22;;;;;;;;;;6190510;23;20598;-83
2022/06/07 03:46:55;;;;;;;4.43;3.50;;;15.00;99.90;;;;;;6190206;23;20156;-83
2022/06/07 03:49:21;;;;;;;4.97;3.60;;;;;;;;;;6190683;23;20605;-83
2022/06/07 03:51:47;;;;;;;4.88;3.80;;;;;;;;;;6216853;23;20159;-83
2022/06/07 03:54:13;;;;;;;4.25;3.80;;;;;;;;;;6190858;23;20158;-83
2022/06/07 03:56:39;;;;;;;4.70;3.40;;;;;;;;;;6190648;23;20156;-84
2022/06/07 03:59:05;;;;;;;4.68;3.63;;;;;;;;;;6190583;23;20199;-83
2022/06/07 04:01:31;;;;;;;7.60;3.33;;;;;;;;;;6216377;23;20172;-83
2022/06/07 04:04:06;;;;;;;4.22;3.35;;;15.90;99.90;;;;;;6216599;23;20159;-83
2022/06/07 04:06:37;;;;;;;5.55;3.65;;;16.00;99.90;;;;;;6217039;23;20144;-82
2022/06/07 04:09:03;;;;;;;4.45;3.03;;;16.10;99.90;;;;;;6216674;23;20194;-82
2022/06/07 04:11:29;;;;;;;3.83;3.40;;;16.40;99.90;;;;;;6217211;23;20163;-83
2022/06/07 04:13:57;;;;;;;5.63;4.03;;;15.80;99.90;;;;;;6217113;23;20152;-83
2022/06/07 04:16:26;;;;;;;4.25;3.35;;;16.40;99.90;;;;;;6165788;23;20156;-83
2022/06/07 04:18:53;;;;;;;3.05;2.60;;;;;;;;;;6216205;23;20500;-83
2022/06/07 04:21:19;;;;;;;3.58;2.80;;;16.60;99.90;;;;;;6216576;23;20148;-83
2022/06/07 04:23:45;;;;;;;3.58;3.15;;;;;;;;;;6189823;23;20163;-83
2022/06/07 04:26:17;;;;;;;6.22;3.85;;;16.90;99.90;;;;;;6216558;23;20156;-82
2022/06/07 04:28:43;;;;;;;3.80;2.92;;;;;;;;;;6189848;23;20151;-83
2022/06/07 04:31:18;;;;;;;3.60;2.75;;;17.60;99.90;;;;;;6216242;23;20171;-83
2022/06/07 04:33:44;;;;;;;3.47;2.95;;;17.00;99.90;;;;;;6216510;23;20163;-83
2022/06/07 04:36:21;;;;;;;4.40;3.00;;;17.20;99.90;;;;;;6216168;23;20148;-83
2022/06/07 04:38:49;;;;;;;6.30;3.35;;;17.10;99.90;;;;;;6216700;23;20168;-84
2022/06/07 04:41:17;;;;;;;3.95;3.47;;;17.40;99.90;;;;;;6216545;23;20152;-83
2022/06/07 04:43:43;;;;;;;3.90;3.00;;;;;;;;;;6216390;23;20202;-83
2022/06/07 04:46:14;;;;;;;4.22;2.72;;;17.80;99.90;;;;;;6189589;23;20152;-83
2022/06/07 04:48:40;;;;;;;5.43;2.85;;;;;;;;;;6220520;23;20175;-82
2022/06/07 04:51:09;;;;;;;3.25;2.75;;;18.00;99.90;;;;;;6226803;23;20605;-83
2022/06/07 04:53:35;;;;;;;3.30;2.65;;;18.00;99.90;;;;;;6219782;23;20206;-84
2022/06/07 04:56:16;;;;;;;3.15;2.50;;;18.00;99.90;;;;;;6189037;23;20239;-83
2022/06/07 04:58:42;;;;;;;6.78;2.63;;;17.90;99.90;;;;;;6215668;23;20219;-83
2022/06/07 05:01:12;;;;;;;3.33;2.58;;;;;;;;;;6215906;23;20209;-84
2022/06/07 05:03:38;;;;;;;2.70;2.13;;;;;;;;;;6215642;23;20222;-84
2022/06/07 05:06:15;;;;;;;3.88;2.58;;;;;;;;;;6215063;23;20635;-84
2022/06/07 05:08:41;;;;;;;3.58;2.60;;;;;;;;;;6215636;23;20652;-85
2022/06/07 05:11:07;;;;;;;2.67;2.42;;;;;;;;;;6214906;23;20235;-85
2022/06/07 05:13:33;;;;;;;2.97;2.40;;;;;;;;;;6188454;23;20188;-84
2022/06/07 05:15:59;;;;;;;3.35;2.58;;;;;;;;;;6215083;23;20163;-83
2022/06/07 05:18:25;;;;;;;3.53;3.00;;;;;;;;;;6187886;23;20602;-85
2022/06/07 05:20:51;;;;;;;3.10;2.65;;;;;;;;;;6214641;23;20215;-84
2022/06/07 05:23:17;;;;;;;3.03;2.40;;;;;;;;;;6214559;23;20649;-85
2022/06/07 05:26:10;;;;;;;4.35;2.47;;;20.00;99.90;;;;;;6188189;23;20168;-86
2022/06/07 05:28:38;;;;;;;3.50;2.78;;;19.40;99.90;;;;;;6214394;23;20623;-85
2022/06/07 05:31:05;;;;;;;4.38;3.17;;;;;;;;;;6215095;23;20235;-83
2022/06/07 05:33:31;;;;;;;2.85;2.22;;;;;;;;;;6214029;23;20159;-84
2022/06/07 05:35:58;;;;;;;4.40;2.97;;;;;;;;;;6215443;23;20579;-85
2022/06/07 05:38:24;;;;;;;3.35;2.53;;;;;;;;;;6216448;23;20598;-84
2022/06/07 05:40:51;;;;;;;3.10;2.55;;;22.20;99.90;;;;;;6214321;23;20221;-89
2022/06/07 05:43:17;;;;;;;3.58;2.65;;;;;;;;;;6188167;23;20187;-85
2022/06/07 05:45:52;;;;;;;3.25;2.92;;;19.50;99.90;;;;;;6213949;23;20151;-84
2022/06/07 05:48:18;;;;;;;3.97;2.45;;;;;;;;;;6187467;23;20159;-83
2022/06/07 05:50:44;;;;;;;3.63;3.05;;;;;;;;;;6213627;23;20234;-84
2022/06/07 05:53:11;;;;;;;3.42;3.00;;;19.50;99.90;;;;;;6213533;23;20152;-83
2022/06/07 05:55:37;;;;;;;3.58;2.83;;;19.20;99.90;;;;;;6214202;23;20156;-82
2022/06/07 05:58:03;;;;;;;4.53;2.95;;;;;;;;;;6213386;23;20285;-84
2022/06/07 06:00:30;;;;;;;3.38;2.72;;;;;;;;;;6187659;23;20164;-83
2022/06/07 06:02:55;;;;;;;5.65;2.65;;;19.50;99.90;;;;;;6162564;23;20202;-82
2022/06/07 06:05:22;;;;;;;4.57;2.95;;;;;;;;;;6214913;23;20164;-83
2022/06/07 06:10:32;;;;;;;5.35;3.58;;;;;;;;;;6216797;23;20194;-81
2022/06/07 06:12:58;;;;;;;3.58;3.05;;;20.40;99.90;;;;;;6190023;23;20159;-84
2022/06/07 06:15:24;;;;;;;3.88;2.85;;;;;;;;;;6189970;23;20517;-85
2022/06/07 06:17:50;;;;;;;3.33;2.78;;;20.40;99.90;;;;;;6190085;23;20163;-83
2022/06/07 06:20:16;;;;;;;2.70;2.50;;;20.60;99.90;;;;;;6141129;23;20167;-83
2022/06/07 06:22:41;;;;;;;4.05;3.03;;;20.20;99.90;;;;;;6216964;23;20179;-82
2022/06/07 06:25:08;;;;;;;3.05;2.75;;;20.20;99.90;;;;;;6217244;23;20595;-83
2022/06/07 06:27:35;;;;;;;4.18;2.78;;;19.90;99.90;;;;;;6217606;23;20164;-84
2022/06/07 06:30:01;;;;;;;3.15;2.83;;;;;;;;;;6216994;23;20222;-83
2022/06/07 06:32:27;;;;;;;3.10;2.80;;;20.20;99.90;;;;;;6216745;23;20159;-83
2022/06/07 06:38:16;;;;;;;4.18;3.30;;;;;;;;;;6216285;23;20275;-86
2022/06/07 06:40:42;;;;;;;4.43;3.25;;;20.60;99.90;;;;;;6216556;23;20156;-84
2022/06/07 06:43:08;;;;;;;4.22;3.42;;;;;;;;;;6190269;23;20500;-84
2022/06/07 06:45:34;;;;;;;3.78;2.90;;;20.30;99.90;;;;;;6216251;23;20163;-83
2022/06/07 06:48:01;;;;;;;3.78;3.00;;;20.40;99.90;;;;;;6216861;23;20165;-83
2022/06/07 06:50:27;;;;;;;4.10;2.75;;;20.50;99.90;;;;;;6216858;23;20158;-83
2022/06/07 06:52:53;;;;;;;3.45;3.00;;;;;;;;;;6190172;23;20168;-82
2022/06/07 06:55:19;;;;;;;6.07;3.67;;;20.40;99.90;;;;;;6190027;23;20162;-84
2022/06/07 06:57:46;;;;;;;5.90;3.38;;;;;;;;;;6216525;23;20147;-84
2022/06/07 07:00:12;;;;;;;6.32;4.93;;;20.50;99.90;;;;;;6216441;23;20626;-82
2022/06/07 07:02:38;;;;;;;5.35;3.47;;;;;;;;;;6190857;23;20176;-84
2022/06/07 07:05:05;;;;;;;3.63;2.83;;;20.70;99.90;;;;;;6190375;23;20160;-85
2022/06/07 07:07:31;;;;;;;3.70;2.83;;;;;;;;;;6216416;23;20235;-82
2022/06/07 07:09:57;;;;;;;3.78;2.97;;;;;;;;;;6190491;23;20251;-83
2022/06/07 07:12:23;;;;;;;5.57;3.30;;;;;;;;;;6216684;23;20536;-83
2022/06/07 07:14:49;;;;;;;7.95;3.47;;;20.50;99.90;;;;;;6217130;23;20618;-84
2022/06/07 07:17:15;;;;;;;3.53;2.85;;;;;;;;;;6189799;23;20152;-83
2022/06/07 07:19:42;;;;;;;3.58;2.53;;;20.70;99.90;;;;;;6189897;23;20623;-84
2022/06/07 07:22:08;;;;;;;5.47;3.13;;;21.00;99.90;;;;;;6215837;23;20567;-83
2022/06/07 07:24:33;;;;;;;4.65;3.53;;;21.40;99.90;;;;;;6216543;23;20210;-84
2022/06/07 07:27:00;;;;;;;3.25;2.78;;;;;;;;;;6217091;23;20156;-82
2022/06/07 07:29:26;;;;;;;3.05;2.55;;;21.00;99.90;;;;;;6216854;23;20568;-83
2022/06/07 07:31:52;;;;;;;4.20;3.17;;;;;;;;;;6165736;23;20259;-83
2022/06/07 07:34:20;;;;;;;3.42;2.83;;;21.20;99.90;;;;;;6216908;23;20152;-84
2022/06/07 07:36:53;;;;;;;5.00;2.70;;;21.20;99.90;;;;;;6165784;23;20221;-83
2022/06/07 07:39:19;;;;;;;3.67;2.80;;;21.50;99.90;;;;;;6217114;23;20147;-82
2022/06/07 07:41:45;;;;;;;3.38;3.00;;;;;;;;;;6216829;23;20333;-83
2022/06/07 07:44:13;;;;;;;6.72;3.03;;;21.30;99.90;;;;;;6190633;23;20160;-83
2022/06/07 07:46:41;;;;;;;3.05;2.75;;;21.70;99.90;;;;;;6216820;23;20163;-83
2022/06/07 07:49:08;;;;;;;4.32;3.45;;;21.80;99.90;;;;;;6190526;23;20163;-84
2022/06/07 07:51:36;;;;;;;2.78;2.58;;;22.00;99.90;;;;;;6190938;23;20263;-84
2022/06/07 07:54:05;;;;;;;4.90;3.30;;;21.70;99.90;;;;;;6190862;23;20171;-84
2022/06/07 07:56:31;;;;;;;3.03;2.60;;;;;;;;;;6217793;23;20152;-85
2022/06/07 07:58:58;;;;;;;4.20;2.90;;;22.00;99.90;;;;;;6198695;23;20164;-82
2022/06/07 08:01:27;;;;;;;3.72;3.28;;;21.80;99.90;;;;;;6217347;23;20152;-90
2022/06/07 08:03:55;;;;;;;5.35;3.58;;;22.10;99.90;;;;;;6217538;23;20175;-88
2022/06/07 08:06:22;;;;;;;3.30;2.97;;;22.10;99.90;;;;;;6243769;23;20144;-89
2022/06/07 08:08:50;;;;;;;3.65;2.88;;;21.90;99.90;;;;;;6243791;23;20210;-87
2022/06/07 08:11:18;;;;;;;4.28;2.83;;;22.40;99.90;;;;;;6232582;23;20158;-84
2022/06/07 08:13:44;;;;;;;3.53;3.22;;;;;;;;;;6221491;23;20155;-82
2022/06/07 08:16:11;;;;;;;4.15;2.63;;;22.50;99.90;;;;;;6195470;23;20182;-89
2022/06/07 08:18:38;;;;;;;4.53;3.20;;;22.70;99.90;;;;;;6243585;23;20136;-86
2022/06/07 08:21:07;;;;;;;3.83;3.17;;;22.90;99.90;;;;;;6243983;23;20171;-90
2022/06/07 08:23:34;;;;;;;3.75;2.83;;;23.10;99.90;;;;;;6243547;23;20160;-83
2022/06/07 08:26:01;;;;;;;3.03;2.53;;;23.30;99.90;;;;;;6239992;23;20156;-81
2022/06/07 08:28:27;;;;;;;4.63;2.88;;;;;;;;;;6217347;23;20290;-83
2022/06/07 08:30:53;;;;;;;3.33;2.78;;;;;;;;;;6190935;23;20208;-82
2022/06/07 08:38:55;;;;;;;2.70;2.50;;;;;;;;;;6242984;23;20140;-84
2022/06/07 08:41:44;;;;;;;3.63;3.03;;;23.70;99.90;;;;;;6219780;23;20204;-81
2022/06/07 08:44:19;;;;;;;3.50;2.83;;;23.80;99.90;;;;;;6158597;23;20239;-81
2022/06/07 08:46:45;;;;;;;3.20;2.70;;;;;;;;;;6218380;23;20186;-81
2022/06/07 08:49:13;;;;;;;3.13;2.83;;;24.00;99.90;;;;;;6191507;23;20162;-81
2022/06/07 08:52:07;;;;;;;2.83;2.42;;;24.40;99.90;;;;;;6190353;23;20152;-82
2022/06/07 08:54:36;;;;;;;2.58;2.17;;;24.00;99.90;;;;;;6190307;23;20159;-82
2022/06/07 08:57:10;;;;;;;5.82;2.83;;;24.00;99.90;;;;;;6217951;23;20156;-82
2022/06/07 08:59:36;;;;;;;2.42;2.22;;;;;;;;;;6217045;23;20139;-82
2022/06/07 09:02:35;;;;;;;2.50;2.30;;;24.50;99.90;;;;;;6216124;23;20205;-82
2022/06/07 09:05:02;;;;;;;3.15;2.15;;;;;;;;;;6189454;23;20503;-82
2022/06/07 09:07:28;;;;;;;2.72;2.25;;;;;;;;;;6215861;23;20208;-83
2022/06/07 09:12:56;;;;;;;3.13;2.63;;;24.70;99.90;;;;;;6215589;23;20175;-81
2022/06/07 09:15:25;;;;;;;3.15;2.85;;;24.80;99.90;;;;;;6215353;23;20214;-82
2022/06/07 09:17:55;;;;;;;4.18;2.50;;;24.90;99.90;;;;;;6215906;23;20154;-83
2022/06/07 09:20:35;;;;;;;3.03;2.70;;;25.30;99.90;;;;;;6215854;23;20133;-82
2022/06/07 09:23:20;;;;;;;5.07;3.88;;;25.00;99.90;;;;;;6215924;23;20630;-84
2022/06/07 09:25:49;;;;;;;3.92;2.90;;;25.10;99.90;;;;;;6216027;23;20585;-82
2022/06/07 09:28:27;;;;;;;2.67;2.30;;;25.20;99.90;;;;;;6215473;23;20155;-87
2022/06/07 09:31:05;;;;;;;4.72;3.13;;;25.00;99.90;;;;;;6215546;23;20148;-83
2022/06/07 09:33:34;;;;;;;5.97;3.60;;;24.80;99.90;;;;;;6189215;23;20168;-83
2022/06/07 09:36:04;;;;;;;3.20;2.80;;;24.90;99.90;;;;;;6215561;23;20171;-83
2022/06/07 09:38:42;;;;;;;3.80;3.03;;;25.10;99.90;;;;;;6215324;23;20140;-83
2022/06/07 09:44:05;;;;;;;3.70;3.35;;;25.80;99.90;;;;;;6195673;23;20218;-81
2022/06/07 09:46:32;;;;;;;9.05;3.03;;;25.70;99.90;;;;;;6191357;23;20160;-83
2022/06/07 09:48:58;;;;;;;4.43;3.15;;;;;;;;;;6218064;23;20449;-85
2022/06/07 09:51:34;;;;;;;3.10;2.80;;;25.50;99.90;;;;;;6217935;23;20234;-83
2022/06/07 09:54:13;;;;;;;4.93;2.83;;;26.20;99.90;;;;;;6217996;23;20163;-84
2022/06/07 09:57:02;;;;;;;3.22;2.78;;;25.60;99.90;;;;;;6219328;23;20136;-83
2022/06/07 09:59:42;;;;;;;2.45;2.20;;;25.60;99.90;;;;;;6218843;23;20576;-83
2022/06/07 10:02:48;;;;;;;6.53;2.90;;;25.80;99.90;;;;;;6219043;23;20234;-82
2022/06/07 10:05:59;;;;;;;6.05;2.97;;;25.60;99.90;;;;;;6097859;23;20661;-83
2022/06/07 10:08:26;;;;;;;3.75;3.03;;;;;;;;;;6215508;23;20202;-85
2022/06/07 10:11:20;;;;;;;3.72;2.83;;;26.50;99.90;;;;;;6219224;23;20152;-84
2022/06/07 10:13:49;;;;;;;3.83;2.90;;;26.30;99.90;;;;;;6218946;23;20524;-82
2022/06/07 10:16:39;;;;;;;3.42;2.97;;;26.40;99.90;;;;;;6218471;23;20152;-83
2022/06/07 10:19:09;;;;;;;4.63;2.97;;;25.80;99.90;;;;;;6219156;23;20136;-82
2022/06/07 10:22:08;;;;;;;6.25;3.28;;;26.20;99.90;;;;;;6192881;23;20531;-83
2022/06/07 10:24:34;;;;;;;4.72;2.63;;;;;;;;;;6218460;23;20198;-83
2022/06/07 10:27:02;;;;;;;4.95;3.72;;;27.10;99.90;;;;;;6218048;23;20486;-83
2022/06/07 10:29:56;;;;;;;5.53;2.75;;;26.80;99.90;;;;;;6191962;23;20237;-83
2022/06/07 10:32:32;;;;;;;1.92;1.77;;;27.20;97.60;;;;;;6218988;23;20187;-87
2022/06/07 10:35:20;;;;;;;4.30;2.08;;;27.90;99.90;;;;;;6219020;23;20144;-83
2022/06/07 10:37:46;;;;;;;2.38;2.17;;;;;;;;;;6192051;23;20183;-83
2022/06/07 10:40:29;;;;;;;2.30;2.10;;;27.00;99.90;;;;;;6218962;23;20152;-83
2022/06/07 10:43:05;;;;;;;2.55;2.03;;;27.40;96.90;;;;;;6219074;23;20171;-81
2022/06/07 10:45:34;;;;;;;2.80;1.90;;;27.50;99.90;;;;;;6218432;23;20686;-81
2022/06/07 10:48:39;;;;;;;2.88;2.35;;;27.80;99.90;;;;;;6218561;23;20634;-80
2022/06/07 10:54:03;;;;;;;2.38;2.17;;;27.20;94.60;;;;;;6216508;23;20479;-83
2022/06/07 10:56:36;;;;;;;2.60;2.17;;;27.20;96.10;;;;;;6216523;23;20187;-82
2022/06/07 10:59:09;;;;;;;4.15;1.92;;;27.10;92.10;;;;;;6216086;23;20144;-82
2022/06/07 11:01:42;;;;;;;3.10;2.60;;;26.80;94.80;;;;;;6190043;23;20665;-82
2022/06/07 11:10:21;;;;;;;2.25;2.05;;;27.00;94.00;;;;;;6216865;23;20301;-83
2022/06/07 11:13:08;;;;;;;4.90;2.20;;;27.40;99.90;;;;;;6216911;23;20168;-82
2022/06/07 11:15:44;;;;;;;2.30;2.10;;;27.60;99.90;;;;;;6216191;23;20162;-82
2022/06/07 11:18:16;;;;;;;2.92;2.60;;;27.80;95.30;;;;;;6216405;23;20594;-82
2022/06/07 11:21:09;;;;;;;3.92;3.03;;;27.50;99.90;;;;;;6216237;23;20140;-82
2022/06/07 11:23:44;;;;;;;2.85;2.50;;;28.70;90.70;;;;;;6216514;23;20226;-82
2022/06/07 11:26:18;;;;;;;2.45;2.13;;;28.30;96.50;;;;;;6216043;23;20148;-83
2022/06/07 11:28:49;;;;;;;3.08;2.10;;;28.20;94.80;;;;;;6189871;23;20528;-82
2022/06/07 11:31:15;;;;;;;2.70;2.38;;;;;;;;;;6216332;23;20152;-82
2022/06/07 11:33:47;;;;;;;2.53;2.10;;;28.30;97.80;;;;;;6216802;23;20587;-82
2022/06/07 11:36:13;;;;;;;2.33;2.13;;;;;;;;;;6216799;23;20152;-81
2022/06/07 11:39:02;;;;;;;3.60;2.70;;;28.10;94.70;;;;;;6216845;23;20576;-82
2022/06/07 11:41:37;;;;;;;2.90;2.50;;;;;;;;;;6217137;23;20144;-82
2022/06/07 11:44:28;;;;;;;2.50;2.30;;;28.30;97.90;;;;;;6216621;23;20152;-81
2022/06/07 11:46:57;;;;;;;2.85;2.40;;;;;;;;;;6159442;23;20167;-82
2022/06/07 11:49:23;;;;;;;3.13;2.33;;;;;;;;;;6189818;23;20156;-87
2022/06/07 11:51:56;;;;;;;2.65;2.35;;;27.80;95.00;;;;;;6215915;23;20155;-82
2022/06/07 11:54:54;;;;;;;3.28;2.53;;;27.50;98.20;;;;;;6216187;23;20463;-81
2022/06/07 11:57:31;;;;;;;2.90;2.50;;;27.70;92.30;;;;;;6216532;23;20152;-82
2022/06/07 11:59:57;;;;;;;3.30;2.53;;;;;;;;;;6189484;23;20183;-82
2022/06/07 12:02:33;;;;;;;3.45;2.80;;;27.70;91.40;;;;;;6215669;23;20504;-83
2022/06/07 12:05:28;;;;;;;2.50;2.20;;;27.70;89.10;;;;;;6215216;23;20549;-82
2022/06/07 12:08:15;;;;;;;4.45;2.38;;;27.40;99.10;;;;;;6201748;23;20230;-81
2022/06/07 12:10:55;;;;;;;3.78;2.80;;;27.20;88.90;;;;;;6215523;23;20137;-83
2022/06/07 12:16:22;;;;;;;5.75;3.00;;;26.80;92.80;;;;;;6193094;23;20186;-82
2022/06/07 12:18:56;;;;;;;2.92;2.65;;;26.60;99.90;;;;;;6215765;23;20168;-82
2022/06/07 12:21:23;;;;;;;5.85;3.13;;;26.60;96.40;;;;;;6215831;23;20140;-83
2022/06/07 12:23:52;;;;;;;3.50;3.05;;;26.50;98.40;;;;;;6215493;23;20186;-81
2022/06/07 12:26:29;;;;;;;4.35;3.05;;;26.30;99.70;;;;;;6215481;23;20614;-81
2022/06/07 12:29:16;;;;;;;3.78;2.92;;;26.50;99.90;;;;;;6215076;23;20147;-82
2022/06/07 12:31:48;;;;;;;4.53;3.28;;;26.80;98.20;;;;;;6214998;23;20163;-82
2022/06/07 12:34:23;;;;;;;6.18;4.20;;;26.70;99.90;;;;;;6215609;23;20151;-82
2022/06/07 12:36:56;;;;;;;3.85;3.45;;;27.20;99.90;;;;;;6215489;23;20151;-82
2022/06/07 12:39:23;;;;;;;3.38;2.92;;;;;;;;;;6215174;23;20468;-82
2022/06/07 12:41:49;;;;;;;2.97;2.67;;;;;;;;;;6215200;23;20178;-82
2022/06/07 12:44:49;;;;;;;3.17;2.88;;;27.30;99.90;;;;;;6215599;23;20239;-83
2022/06/07 12:47:24;;;;;;;3.72;2.60;;;26.90;99.90;;;;;;6215033;23;20156;-82
2022/06/07 12:49:50;;;;;;;4.60;3.38;;;;;;;;;;6215467;23;20258;-82
2022/06/07 12:52:20;;;;;;;3.55;3.22;;;27.00;94.60;;;;;;6215617;23;20167;-82
2022/06/07 12:54:49;;;;;;;4.30;3.50;;;27.10;95.30;;;;;;6217053;23;20190;-81
2022/06/07 12:57:20;;;;;;;2.97;2.70;;;27.10;92.90;;;;;;6216032;23;20162;-81
2022/06/07 13:00:00;;;;;;;3.17;2.83;;;27.10;95.50;;;;;;6215441;23;20535;-81
2022/06/07 13:02:39;;;;;;;4.22;2.88;;;27.20;92.00;;;;;;6215559;23;20171;-82
2022/06/07 13:05:20;;;;;;;3.38;2.97;;;27.40;91.30;;;;;;6216155;23;20140;-81
2022/06/07 13:07:47;;;;;;;5.10;3.47;;;;;;;;;;6215706;23;20187;-83
2022/06/07 13:10:20;;;;;;;3.75;3.05;;;27.50;89.60;;;;;;6215773;23;20162;-82
2022/06/07 13:12:49;;;;;;;4.45;3.70;;;27.50;88.40;;;;;;6216082;23;20482;-82
2022/06/07 13:15:25;;;;;;;5.10;3.55;;;27.40;90.00;;;;;;6215570;23;20231;-81
2022/06/07 13:17:53;;;;;;;3.47;2.95;;;27.30;88.80;;;;;;6215682;23;20147;-82
2022/06/07 13:20:32;;;;;;;3.53;2.90;;;27.20;90.70;;;;;;6188148;23;20454;-83
2022/06/07 13:22:58;;;;;;;4.03;3.42;;;;;;;;;;6215574;23;20238;-82
2022/06/07 13:25:27;;;;;;;5.15;3.40;;;27.00;90.80;;;;;;6189914;23;20183;-81
2022/06/07 13:28:14;;;;;;;5.18;3.45;;;26.80;97.10;;;;;;6215756;23;20238;-82
2022/06/07 13:30:43;;;;;;;4.78;3.80;;;27.10;90.20;;;;;;6216112;23;20144;-81
2022/06/07 13:33:16;;;;;;;3.38;3.00;;;27.20;93.00;;;;;;6215977;23;20152;-82
2022/06/07 13:35:49;;;;;;;5.07;4.20;;;27.10;90.20;;;;;;6215932;23;20162;-82
2022/06/07 13:38:42;;;;;;;5.28;3.70;;;27.10;93.90;;;;;;6215488;23;20449;-82
2022/06/07 13:41:10;;;;;;;4.22;3.33;;;26.90;95.30;;;;;;6215760;23;20151;-81
2022/06/07 13:43:58;;;;;;;7.25;5.35;;;27.00;92.40;;;;;;6189366;23;20176;-81
2022/06/07 13:46:25;;;;;;;4.22;3.60;;;27.10;91.20;;;;;;6153579;23;20632;-82
2022/06/07 13:55:31;;;;;;;5.13;3.35;;;27.60;97.80;;;;;;6215506;23;20147;-82
2022/06/07 13:57:58;;;;;;;4.38;3.65;;;;;;;;;;6215329;23;20168;-81
2022/06/07 14:00:24;;;;;;;4.07;3.60;;;;;;;;;;6215717;23;20480;-82
2022/06/07 14:02:50;;;;;;;5.13;4.07;;;;;;;;;;6214943;23;20184;-81
2022/06/07 14:05:26;;;;;;;4.80;3.60;;;27.70;93.80;;;;;;6215652;23;20148;-82
2022/06/07 14:07:53;;;;;;;5.32;3.80;;;27.70;92.30;;;;;;6215618;23;20187;-83
2022/06/07 14:10:19;;;;;;;5.82;4.00;;;;;;;;;;6189191;23;20164;-82
2022/06/07 14:12:46;;;;;;;5.05;3.63;;;;;;;;;;6215683;23;20191;-86
2022/06/07 14:15:12;;;;;;;4.75;3.83;;;;;;;;;;6215527;23;20235;-81
2022/06/07 14:17:41;;;;;;;4.03;3.35;;;27.50;90.80;;;;;;6216183;23;20156;-82
2022/06/07 14:20:14;;;;;;;3.85;3.28;;;27.70;97.10;;;;;;6215804;23;20156;-82
2022/06/07 14:22:40;;;;;;;4.38;3.78;;;;;;;;;;6166386;23;20198;-82
2022/06/07 14:25:08;;;;;;;3.95;3.55;;;27.10;97.50;;;;;;6216042;23;20168;-82
2022/06/07 14:27:34;;;;;;;7.22;4.10;;;;;;;;;;6219215;23;20152;-82